Time;durP1;ratioP1;P1;durP2;ratioP2;P2;SDS_P1;SDS_P2;PMS_P1;PMS_P2;Temp;Humidity;BMP_temperature;BMP_pressure;BME280_temperature;BME280_humidity;BME280_pressure;Samples;Min_cycle;Max_cycle;Signal;HPM_P1;HPM_P2
2021/06/21 00:03:17;;;;;;;4.82;2.10;;;;;;;21.82;53.32;100823.28;6238016;28;20232;-56
2021/06/21 00:06:39;;;;;;;3.15;1.83;;;;;;;21.66;53.96;100809.19;6236216;28;20228;-58
2021/06/21 00:10:00;;;;;;;4.47;2.10;;;;;;;21.86;53.56;100809.88;6232749;28;20267;-57
2021/06/21 00:13:21;;;;;;;4.90;2.58;;;;;;;21.66;54.00;100803.88;6235124;28;20256;-58
2021/06/21 00:16:42;;;;;;;3.38;1.95;;;;;;;21.89;53.38;100801.72;6207144;28;20614;-58
2021/06/21 00:20:03;;;;;;;4.28;2.15;;;;;;;21.63;53.54;100794.31;6210000;28;20233;-59
2021/06/21 00:23:26;;;;;;;5.00;2.45;;;;;;;21.38;54.62;100809.81;6221500;28;20230;-57
2021/06/21 00:26:47;;;;;;;6.20;2.55;;;;;;;21.46;54.54;100810.28;6217654;28;20611;-58
2021/06/21 00:30:11;;;;;;;6.75;2.55;;;;;;;21.51;54.27;100820.63;6199844;28;20252;-59
2021/06/21 00:33:32;;;;;;;3.88;2.33;;;;;;;21.36;54.36;100817.81;6236485;28;20244;-59
2021/06/21 00:36:53;;;;;;;2.88;1.92;;;;;;;21.21;54.58;100829.28;6241460;28;20225;-57
2021/06/21 00:40:17;;;;;;;3.22;2.35;;;;;;;21.23;54.69;100832.69;6227875;28;20319;-58
2021/06/21 00:43:38;;;;;;;3.42;2.08;;;;;;;21.24;54.20;100826.44;6227504;28;20240;-58
2021/06/21 00:46:59;;;;;;;2.97;2.13;;;;;;;21.36;54.19;100828.41;6212213;28;20604;-56
2021/06/21 00:50:20;;;;;;;4.57;3.08;;;;;;;21.34;54.47;100825.00;6206966;28;20237;-57
2021/06/21 00:53:43;;;;;;;4.38;3.25;;;;;;;21.48;54.14;100832.25;6212544;28;20533;-56
2021/06/21 00:57:06;;;;;;;3.88;2.72;;;;;;;21.34;54.13;100832.94;6191892;28;20563;-58
2021/06/21 01:00:28;;;;;;;3.92;2.20;;;;;;;21.22;54.46;100831.81;6195283;28;20505;-57
2021/06/21 01:03:49;;;;;;;4.93;3.95;;;;;;;21.30;54.27;100830.56;6204046;28;20229;-57
2021/06/21 01:07:10;;;;;;;4.47;2.70;;;;;;;21.42;54.13;100811.34;6201174;28;20567;-59
2021/06/21 01:10:31;;;;;;;3.22;2.42;;;;;;;21.01;54.86;100806.47;6208350;28;20229;-57
2021/06/21 01:14:14;;;;;;;5.43;3.10;;;;;;;20.99;55.13;100803.06;6217729;28;20614;-58
2021/06/21 01:17:39;;;;;;;6.25;2.63;;;;;;;20.99;55.06;100795.13;6213330;28;20579;-58
2021/06/21 01:21:49;;;;;;;2.45;2.22;;;;;;;21.21;54.32;100784.25;6244226;28;20236;-58
2021/06/21 01:25:28;;;;;;;4.70;1.90;;;;;;;21.34;53.95;100765.88;6228409;28;20237;-58
2021/06/21 01:29:04;;;;;;;4.70;2.75;;;;;;;20.85;54.94;100769.38;6237492;28;20228;-59
2021/06/21 01:32:40;;;;;;;6.93;2.35;;;;;;;20.82;55.36;100758.94;6230791;28;20248;-58
2021/06/21 01:36:03;;;;;;;3.38;2.67;;;;;;;21.06;54.57;100755.97;6231990;28;20236;-59
2021/06/21 01:39:24;;;;;;;7.30;2.50;;;;;;;20.68;55.52;100762.31;6217528;28;20232;-59
2021/06/21 01:42:51;;;;;;;4.70;3.72;;;;;;;20.45;56.37;100763.47;6203561;28;20550;-59
2021/06/21 01:46:18;;;;;;;5.13;3.03;;;;;;;20.85;54.94;100741.13;6215520;28;20232;-56
2021/06/21 01:49:44;;;;;;;4.07;2.45;;;;;;;20.80;55.15;100744.94;6204325;28;20608;-58
2021/06/21 01:53:08;;;;;;;4.03;3.42;;;;;;;20.86;55.01;100744.66;6220133;28;20236;-57
2021/06/21 01:56:31;;;;;;;6.32;3.58;;;;;;;21.02;54.53;100744.66;6206504;28;20262;-58
2021/06/21 01:59:54;;;;;;;6.43;3.60;;;;;;;20.60;55.61;100751.28;6207643;28;20221;-60
2021/06/21 02:03:18;;;;;;;5.45;3.33;;;;;;;20.98;54.86;100740.47;6206420;28;20232;-60
2021/06/21 02:06:41;;;;;;;4.95;3.25;;;;;;;20.81;55.07;100736.09;6227479;28;20248;-61
2021/06/21 02:10:05;;;;;;;6.97;4.70;;;;;;;20.56;56.00;100732.03;6223632;28;20236;-60
2021/06/21 02:13:26;;;;;;;7.45;3.63;;;;;;;20.95;54.47;100722.09;6238550;28;20232;-61
2021/06/21 02:16:49;;;;;;;5.45;3.33;;;;;;;20.91;54.48;100716.13;6226636;28;20527;-61
2021/06/21 02:20:12;;;;;;;4.95;3.75;;;;;;;20.81;55.21;100730.78;6225679;28;20236;-61
2021/06/21 02:23:37;;;;;;;3.33;2.90;;;;;;;20.91;54.67;100718.75;6233461;28;20527;-61
2021/06/21 02:26:59;;;;;;;5.93;3.28;;;;;;;20.88;54.80;100712.78;6231247;28;20236;-61
2021/06/21 02:30:21;;;;;;;5.88;3.28;;;;;;;20.51;55.97;100714.69;6230984;28;20216;-60
2021/06/21 02:33:42;;;;;;;4.60;4.18;;;;;;;19.97;57.73;100713.03;6231616;28;20233;-62
2021/06/21 02:37:04;;;;;;;6.63;3.42;;;;;;;19.81;58.19;100712.94;6221276;28;20233;-61
2021/06/21 02:40:26;;;;;;;3.88;3.35;;;;;;;20.27;57.24;100713.22;6209476;28;20237;-60
2021/06/21 02:43:47;;;;;;;6.78;4.43;;;;;;;20.08;58.07;100728.31;6214990;28;20241;-61
2021/06/21 02:47:08;;;;;;;4.93;3.33;;;;;;;20.19;57.94;100728.66;6213684;28;20241;-61
2021/06/21 02:50:29;;;;;;;4.45;3.33;;;;;;;20.58;57.04;100735.47;6208683;28;20619;-59
2021/06/21 02:53:55;;;;;;;6.28;4.72;;;;;;;20.31;57.51;100744.81;6211938;28;20233;-60
2021/06/21 02:57:27;;;;;;;5.53;4.30;;;;;;;20.61;56.97;100756.50;6200206;28;20229;-60
2021/06/21 03:00:51;;;;;;;5.90;3.13;;;;;;;20.25;58.64;100759.22;6224475;28;20224;-60
2021/06/21 03:04:15;;;;;;;4.75;2.85;;;;;;;21.00;56.12;100757.97;6232356;28;20236;-61
2021/06/21 03:07:37;;;;;;;5.75;4.93;;;;;;;20.55;57.25;100759.44;6239124;28;20228;-60
2021/06/21 03:10:59;;;;;;;7.25;3.80;;;;;;;20.63;57.64;100748.50;6227744;28;20228;-60
2021/06/21 03:14:24;;;;;;;6.90;4.57;;;;;;;20.45;58.32;100747.59;6240318;28;20232;-60
2021/06/21 03:17:46;;;;;;;5.43;3.67;;;;;;;20.56;58.21;100739.13;6242278;28;20236;-60
2021/06/21 03:21:07;;;;;;;5.00;3.78;;;;;;;20.80;57.85;100729.06;6236240;28;20236;-60
2021/06/21 03:24:28;;;;;;;5.75;4.18;;;;;;;20.52;58.51;100717.25;6233811;28;20264;-60
2021/06/21 03:27:49;;;;;;;6.75;3.55;;;;;;;20.46;58.47;100720.25;6235891;28;20227;-60
2021/06/21 03:31:11;;;;;;;5.05;4.13;;;;;;;20.06;60.23;100722.25;6213287;28;20236;-61
2021/06/21 03:34:35;;;;;;;6.22;4.07;;;;;;;20.15;60.15;100720.97;6214089;28;20305;-60
2021/06/21 03:37:55;;;;;;;4.25;3.88;;;;;;;19.61;62.29;100723.56;6210210;28;20229;-61
2021/06/21 03:41:16;;;;;;;4.53;3.38;;;;;;;20.11;60.50;100719.41;6206065;28;20547;-61
2021/06/21 03:44:37;;;;;;;4.13;3.10;;;;;;;20.52;58.32;100730.50;6218305;28;22466;-60
2021/06/21 03:48:00;;;;;;;5.63;4.05;;;;;;;20.16;59.74;100728.81;6233056;28;20229;-60
2021/06/21 03:51:21;;;;;;;4.25;3.85;;;;;;;20.27;59.55;100713.22;6216696;28;20582;-60
2021/06/21 03:54:43;;;;;;;4.47;4.07;;;;;;;20.34;59.89;100702.38;6212742;28;20316;-61
2021/06/21 03:58:05;;;;;;;4.80;3.15;;;;;;;20.31;59.52;100695.44;6206940;28;20256;-60
2021/06/21 04:01:25;;;;;;;5.85;2.72;;;;;;;20.48;59.18;100705.13;6196053;28;20319;-60
2021/06/21 04:04:47;;;;;;;6.20;3.00;;;;;;;20.60;58.66;100696.59;6211646;28;20229;-60
2021/06/21 04:08:11;;;;;;;3.58;3.28;;;;;;;20.86;57.87;100691.72;6208347;28;20233;-60
2021/06/21 04:11:33;;;;;;;3.55;3.03;;;;;;;20.38;59.56;100685.41;6205536;28;20229;-61
2021/06/21 04:14:54;;;;;;;3.20;2.90;;;;;;;19.99;61.00;100689.16;6211429;28;20225;-61
2021/06/21 04:18:17;;;;;;;7.03;4.20;;;;;;;20.21;59.91;100678.34;6200537;28;20233;-61
2021/06/21 04:21:39;;;;;;;5.00;2.47;;;;;;;20.04;61.16;100687.13;6223695;28;20229;-60
2021/06/21 04:25:00;;;;;;;5.10;3.00;;;;;;;20.33;59.75;100684.78;6209415;28;20233;-60
2021/06/21 04:28:21;;;;;;;4.25;3.20;;;;;;;20.43;59.48;100680.72;6207953;28;20260;-60
2021/06/21 04:31:42;;;;;;;4.30;2.55;;;;;;;20.25;60.14;100667.50;6208147;28;20749;-60
2021/06/21 04:35:05;;;;;;;3.15;2.00;;;;;;;20.33;59.90;100631.88;6219019;28;20689;-60
2021/06/21 04:38:27;;;;;;;2.38;2.17;;;;;;;20.52;59.29;100622.03;6222055;28;20350;-61
2021/06/21 04:41:49;;;;;;;3.45;3.13;;;;;;;19.85;61.61;100651.06;6208494;28;20268;-60
2021/06/21 04:45:12;;;;;;;2.80;2.60;;;;;;;19.59;62.92;100681.38;6210331;28;20237;-61
2021/06/21 04:48:33;;;;;;;2.75;2.42;;;;;;;19.86;62.00;100679.19;6219309;28;20244;-60
2021/06/21 04:51:54;;;;;;;2.70;1.85;;;;;;;20.39;60.61;100677.38;6223422;28;20232;-60
2021/06/21 04:55:18;;;;;;;2.00;1.88;;;;;;;20.12;60.64;100653.22;6206654;28;20228;-60
2021/06/21 04:58:39;;;;;;;4.38;2.47;;;;;;;20.13;60.83;100649.66;6211241;28;20614;-61
2021/06/21 05:01:59;;;;;;;4.10;1.70;;;;;;;20.38;60.01;100654.50;6216291;28;20730;-60
2021/06/21 05:05:21;;;;;;;1.45;1.10;;;;;;;20.50;59.51;100658.31;6211489;28;20233;-59
2021/06/21 05:08:42;;;;;;;1.75;1.50;;;;;;;20.49;59.76;100648.69;6204299;28;20323;-60
2021/06/21 05:12:05;;;;;;;1.58;1.48;;;;;;;20.47;59.69;100647.88;6210962;28;20225;-61
2021/06/21 05:15:27;;;;;;;2.75;1.48;;;;;;;20.44;59.85;100654.19;6213444;28;20225;-60
2021/06/21 05:18:48;;;;;;;3.58;1.67;;;;;;;20.27;60.67;100652.41;6229786;28;20237;-61
2021/06/21 05:22:09;;;;;;;2.33;2.00;;;;;;;20.35;60.19;100649.38;6205187;28;20237;-61
2021/06/21 05:25:32;;;;;;;3.08;1.83;;;;;;;20.06;61.07;100661.47;6210665;28;20241;-59
2021/06/21 05:28:54;;;;;;;1.48;1.38;;;;;;;20.24;60.94;100652.59;6222094;28;20283;-60
2021/06/21 05:32:15;;;;;;;2.72;2.05;;;;;;;20.46;60.31;100638.25;6222576;28;20244;-60
2021/06/21 05:35:36;;;;;;;4.95;2.15;;;;;;;20.36;60.70;100623.81;6229593;28;20224;-61
2021/06/21 05:38:57;;;;;;;2.13;1.63;;;;;;;20.48;60.21;100595.84;6232475;28;20519;-61
2021/06/21 05:42:18;;;;;;;2.60;1.67;;;;;;;20.34;61.34;100583.38;6224365;28;20252;-60
2021/06/21 05:45:41;;;;;;;2.17;1.95;;;;;;;20.37;60.69;100572.63;6229626;28;20232;-62
2021/06/21 05:49:01;;;;;;;1.80;1.70;;;;;;;20.27;61.39;100551.94;6232580;28;20232;-61
2021/06/21 05:52:22;;;;;;;2.45;1.67;;;;;;;19.88;62.99;100565.50;6214407;28;20261;-60
2021/06/21 05:55:43;;;;;;;2.08;1.52;;;;;;;19.87;62.92;100558.47;6202925;28;20237;-61
2021/06/21 05:59:04;;;;;;;2.55;1.20;;;;;;;20.17;62.08;100561.31;6209005;28;20247;-61
2021/06/21 06:02:26;;;;;;;2.13;1.95;;;;;;;20.15;61.81;100552.63;6217007;28;20631;-60
2021/06/21 06:05:47;;;;;;;3.30;2.95;;;;;;;20.18;61.97;100548.94;6232653;28;20579;-61
2021/06/21 06:09:08;;;;;;;3.10;2.03;;;;;;;20.03;62.52;100564.69;6231928;28;20224;-61
2021/06/21 06:12:29;;;;;;;2.10;1.80;;;;;;;20.23;61.83;100562.78;6230197;28;20236;-60
2021/06/21 06:15:50;;;;;;;3.72;1.80;;;;;;;20.39;61.16;100554.88;6229986;28;20309;-63
2021/06/21 06:19:12;;;;;;;2.00;1.67;;;;;;;20.11;61.83;100545.78;6225002;28;20308;-63
2021/06/21 06:22:34;;;;;;;4.85;1.63;;;;;;;20.44;61.16;100529.03;6217969;28;20248;-63
2021/06/21 06:25:54;;;;;;;1.65;1.55;;;;;;;20.46;61.06;100529.81;6210081;28;20626;-63
2021/06/21 06:29:16;;;;;;;3.30;2.00;;;;;;;20.71;60.28;100549.66;6194143;28;20685;-62
2021/06/21 06:32:37;;;;;;;2.22;1.80;;;;;;;20.55;60.61;100547.81;6212761;28;20256;-60
2021/06/21 06:35:59;;;;;;;1.83;1.65;;;;;;;20.34;60.95;100539.25;6210601;28;20645;-60
2021/06/21 06:39:20;;;;;;;3.58;1.73;;;;;;;20.27;61.57;100562.53;6211865;28;20233;-61
2021/06/21 06:42:42;;;;;;;3.10;2.10;;;;;;;19.77;63.36;100559.91;6215262;28;20237;-60
2021/06/21 06:46:03;;;;;;;3.38;1.40;;;;;;;19.97;63.03;100554.44;6231897;28;20224;-60
2021/06/21 06:49:24;;;;;;;1.58;1.45;;;;;;;20.13;62.31;100543.06;6234834;28;20236;-60
2021/06/21 06:52:48;;;;;;;2.17;1.83;;;;;;;20.19;62.67;100543.59;6220200;28;20220;-62
2021/06/21 06:59:48;;;;;;;1.85;1.10;;;;;;;20.25;61.97;100535.31;6220383;28;21676;-61
2021/06/21 07:03:09;;;;;;;2.13;1.38;;;;;;;20.08;62.97;100535.34;6220779;28;20236;-60
2021/06/21 07:06:30;;;;;;;3.47;1.20;;;;;;;20.44;61.83;100544.91;6228700;28;20406;-61
2021/06/21 07:09:52;;;;;;;3.85;2.30;;;;;;;20.30;62.32;100550.06;6231534;28;20237;-61
2021/06/21 07:13:13;;;;;;;3.45;1.40;;;;;;;20.45;61.65;100559.81;6222631;28;20232;-57
2021/06/21 07:16:35;;;;;;;1.33;1.02;;;;;;;20.54;61.45;100569.06;6223739;28;20252;-62
2021/06/21 07:19:56;;;;;;;2.10;1.50;;;;;;;20.35;61.84;100577.97;6231595;28;20578;-63
2021/06/21 07:23:17;;;;;;;1.30;1.23;;;;;;;20.21;62.51;100570.78;6216144;28;20237;-62
2021/06/21 07:26:40;;;;;;;2.15;1.63;;;;;;;20.42;62.12;100560.00;6208875;28;20233;-63
2021/06/21 07:30:01;;;;;;;2.08;1.20;;;;;;;20.96;60.85;100559.72;6202237;28;20244;-60
2021/06/21 07:33:23;;;;;;;4.40;1.50;;;;;;;20.90;60.42;100550.31;6202333;28;20233;-61
2021/06/21 07:36:44;;;;;;;1.55;1.35;;;;;;;20.95;60.15;100548.25;6198410;28;20633;-62
2021/06/21 07:40:07;;;;;;;1.20;1.10;;;;;;;20.77;61.04;100551.94;6195746;28;20241;-62
2021/06/21 07:43:29;;;;;;;1.40;1.30;;;;;;;20.73;61.34;100550.41;6201112;28;20229;-62
2021/06/21 07:46:51;;;;;;;1.33;1.15;;;;;;;20.75;61.24;100549.38;6217341;28;20236;-63
2021/06/21 07:50:12;;;;;;;1.35;1.25;;;;;;;20.41;62.27;100572.38;6211679;28;20516;-62
2021/06/21 07:53:34;;;;;;;1.55;0.90;;;;;;;20.38;62.71;100579.63;6202441;28;20229;-64
2021/06/21 07:56:55;;;;;;;2.70;2.17;;;;;;;20.15;63.99;100588.78;6219692;28;20456;-63
2021/06/21 08:00:20;;;;;;;1.50;1.40;;;;;;;20.47;62.54;100589.69;6192993;28;20241;-63
2021/06/21 08:03:42;;;;;;;1.83;1.45;;;;;;;20.27;63.22;100596.06;6205911;28;20237;-62
2021/06/21 08:07:04;;;;;;;3.03;1.65;;;;;;;20.40;62.92;100596.25;6212139;28;20513;-62
2021/06/21 08:10:26;;;;;;;1.70;1.60;;;;;;;20.71;61.81;100589.34;6201307;28;20319;-62
2021/06/21 08:13:46;;;;;;;1.95;1.50;;;;;;;20.62;62.39;100602.13;6209539;28;20260;-62
2021/06/21 08:17:09;;;;;;;1.60;1.50;;;;;;;20.76;61.96;100595.22;6207190;28;20232;-61
2021/06/21 08:20:30;;;;;;;1.23;1.05;;;;;;;20.89;61.18;100593.59;6211773;28;20229;-61
2021/06/21 08:23:52;;;;;;;1.40;1.30;;;;;;;20.69;61.83;100593.88;6229616;28;20330;-63
2021/06/21 08:27:14;;;;;;;1.33;1.23;;;;;;;20.24;63.35;100597.06;6199052;28;20241;-62
2021/06/21 08:30:36;;;;;;;1.60;1.50;;;;;;;20.33;63.44;100589.59;6219793;28;20538;-62
2021/06/21 08:33:59;;;;;;;1.45;1.35;;;;;;;19.95;65.16;100587.16;6229833;28;20278;-62
2021/06/21 08:37:21;;;;;;;1.02;0.85;;;;;;;19.89;65.47;100587.47;6243319;28;20228;-62
2021/06/21 08:40:42;;;;;;;0.88;0.88;;;;;;;20.02;64.72;100577.97;6226176;28;20240;-61
2021/06/21 08:44:03;;;;;;;1.55;1.38;;;;;;;20.50;63.35;100589.53;6219719;28;20716;-61
2021/06/21 08:47:24;;;;;;;1.42;0.82;;;;;;;20.24;63.96;100583.84;6230849;28;20235;-60
2021/06/21 08:50:47;;;;;;;2.25;0.70;;;;;;;20.46;63.28;100586.19;6209668;28;20327;-62
2021/06/21 08:54:08;;;;;;;1.42;0.50;;;;;;;20.22;64.43;100588.38;6199116;28;20221;-63
2021/06/21 08:57:30;;;;;;;1.05;0.60;;;;;;;20.72;62.15;100583.94;6208789;28;20232;-62
2021/06/21 09:00:51;;;;;;;1.77;1.02;;;;;;;20.73;62.27;100595.41;6202150;28;20233;-63
2021/06/21 09:04:12;;;;;;;0.93;0.93;;;;;;;20.94;61.84;100586.28;6200988;28;20809;-63
2021/06/21 09:07:34;;;;;;;1.40;1.30;;;;;;;21.04;61.34;100600.69;6199799;28;20853;-63
2021/06/21 09:10:55;;;;;;;4.43;4.03;;;;;;;20.74;62.20;100591.81;6202649;28;20889;-60
2021/06/21 09:14:30;;;;;;;0.98;0.80;;;;;;;20.60;61.76;100585.47;6201469;28;20242;-62
2021/06/21 09:17:51;;;;;;;3.10;1.55;;;;;;;20.22;64.28;100591.00;6202930;28;20225;-61
2021/06/21 09:21:27;;;;;;;4.78;1.13;;;;;;;20.40;63.78;100588.31;6201484;28;20236;-61
2021/06/21 09:24:49;;;;;;;1.30;1.20;;;;;;;20.57;62.84;100580.34;6203332;28;20233;-60
2021/06/21 09:28:10;;;;;;;1.60;0.63;;;;;;;20.44;63.12;100576.66;6204593;28;20755;-61
2021/06/21 09:31:48;;;;;;;1.52;0.98;;;;;;;20.48;63.20;100578.19;6209118;28;20525;-62
2021/06/21 09:35:13;;;;;;;0.80;0.80;;;;;;;20.19;64.12;100575.31;6205187;28;20509;-62
2021/06/21 09:38:34;;;;;;;1.65;0.82;;;;;;;20.72;62.47;100572.50;6204787;28;20229;-63
2021/06/21 09:42:22;;;;;;;0.98;0.88;;;;;;;20.79;62.26;100568.59;6213553;28;20236;-61
2021/06/21 09:46:02;;;;;;;0.50;0.50;;;;;;;20.85;62.20;100570.91;6202411;28;20248;-61
2021/06/21 09:49:23;;;;;;;1.55;0.80;;;;;;;20.62;62.63;100575.66;6207415;28;20256;-61
2021/06/21 09:52:52;;;;;;;1.67;0.75;;;;;;;20.55;63.74;100576.91;6200543;28;20246;-62
2021/06/21 09:56:32;;;;;;;0.98;0.88;;;;;;;20.86;62.14;100577.91;6207467;28;20617;-61
2021/06/21 09:59:55;;;;;;;1.35;0.95;;;;;;;20.78;62.16;100572.16;6203022;28;20232;-63
2021/06/21 10:03:18;;;;;;;1.17;0.80;;;;;;;21.15;61.58;100575.38;6200379;28;21195;-61
2021/06/21 10:06:39;;;;;;;0.80;0.80;;;;;;;21.27;61.27;100571.19;6202796;28;20746;-62
2021/06/21 10:10:01;;;;;;;0.73;0.73;;;;;;;21.63;59.91;100581.47;6213406;28;20229;-62
2021/06/21 10:13:22;;;;;;;0.80;0.80;;;;;;;21.04;61.47;100578.66;6208822;28;20240;-62
2021/06/21 10:16:47;;;;;;;0.63;0.63;;;;;;;20.75;62.72;100578.50;6210929;28;20657;-61
2021/06/21 10:20:10;;;;;;;1.80;0.88;;;;;;;20.93;62.54;100575.75;6206725;28;20579;-62
2021/06/21 10:23:31;;;;;;;0.75;0.68;;;;;;;20.90;62.05;100576.78;6229184;28;20240;-63
2021/06/21 10:26:53;;;;;;;0.80;0.73;;;;;;;20.97;61.92;100578.13;6204834;28;20256;-63
2021/06/21 10:30:18;;;;;;;0.90;0.90;;;;;;;20.93;62.57;100581.91;6200705;28;20229;-62
2021/06/21 10:33:40;;;;;;;0.60;0.60;;;;;;;20.92;62.06;100585.50;6219108;28;20492;-62
2021/06/21 10:37:03;;;;;;;2.13;1.00;;;;;;;20.80;63.60;100578.22;6225308;28;21862;-61
2021/06/21 10:40:25;;;;;;;1.23;1.13;;;;;;;21.36;61.42;100574.16;6230492;28;20224;-61
2021/06/21 10:43:48;;;;;;;1.35;1.20;;;;;;;21.12;62.41;100579.06;6237516;28;20255;-62
2021/06/21 10:47:34;;;;;;;0.80;0.80;;;;;;;20.79;62.75;100581.81;6228911;28;20229;-62
2021/06/21 10:50:57;;;;;;;1.00;1.00;;;;;;;20.80;63.30;100588.81;6221495;28;20229;-62
2021/06/21 10:54:23;;;;;;;0.85;0.85;;;;;;;21.16;61.58;100598.28;6225535;28;20232;-60
2021/06/21 10:57:44;;;;;;;2.15;1.00;;;;;;;21.51;60.26;100584.84;6225541;28;20228;-62
2021/06/21 11:01:14;;;;;;;0.85;0.75;;;;;;;21.65;59.92;100605.22;6222679;28;20225;-61
2021/06/21 11:04:47;;;;;;;2.78;1.13;;;;;;;21.48;60.39;100603.56;6230225;28;20224;-61
2021/06/21 11:08:15;;;;;;;2.05;0.80;;;;;;;21.48;60.21;100614.16;6205979;28;20241;-60
2021/06/21 11:11:46;;;;;;;1.00;1.00;;;;;;;21.56;60.09;100609.28;6200184;28;20248;-60
2021/06/21 11:15:16;;;;;;;1.67;1.55;;;;;;;21.36;60.30;100608.59;6202155;28;20266;-60
2021/06/21 11:18:37;;;;;;;1.40;1.30;;;;;;;21.84;58.83;100605.84;6207427;28;20260;-63
2021/06/21 11:22:01;;;;;;;1.17;1.00;;;;;;;21.37;60.24;100605.00;6200616;28;20229;-63
2021/06/21 11:25:25;;;;;;;1.20;1.10;;;;;;;21.52;60.46;100595.34;6201388;28;20233;-61
2021/06/21 11:28:48;;;;;;;2.38;1.00;;;;;;;21.45;59.85;100591.34;6206551;28;20228;-61
2021/06/21 11:32:12;;;;;;;1.42;1.02;;;;;;;20.99;61.81;100591.28;6224612;28;20232;-63
2021/06/21 11:35:55;;;;;;;2.97;1.30;;;;;;;21.56;59.65;100596.03;6227238;28;20891;-62
2021/06/21 11:39:22;;;;;;;1.35;1.35;;;;;;;21.34;60.23;100602.53;6199942;28;20237;-62
2021/06/21 11:43:13;;;;;;;1.70;1.60;;;;;;;21.31;60.34;100602.72;6198820;28;20241;-62
2021/06/21 11:46:43;;;;;;;1.73;1.63;;;;;;;20.91;62.06;100607.59;6197281;28;20229;-62
2021/06/21 11:50:09;;;;;;;1.92;1.83;;;;;;;21.19;61.43;100609.56;6216428;28;20224;-61
2021/06/21 11:53:31;;;;;;;1.42;1.33;;;;;;;21.65;60.30;100599.94;6197765;28;21934;-62
2021/06/21 11:56:53;;;;;;;2.15;1.90;;;;;;;21.73;59.23;100603.84;6204285;28;20233;-62
2021/06/21 12:00:18;;;;;;;1.98;1.88;;;;;;;21.52;60.72;100605.97;6201150;28;20225;-61
2021/06/21 12:03:43;;;;;;;1.70;1.60;;;;;;;21.33;60.88;100611.41;6190423;28;20640;-62
2021/06/21 12:07:06;;;;;;;1.60;1.50;;;;;;;21.33;61.16;100624.66;6202258;28;20690;-62
2021/06/21 12:10:26;;;;;;;2.63;1.80;;;;;;;21.05;61.32;100620.06;6193379;28;20666;-63
2021/06/21 12:13:56;;;;;;;2.00;1.80;;;;;;;21.25;60.71;100618.97;6201400;28;20233;-62
2021/06/21 12:17:21;;;;;;;2.40;1.70;;;;;;;21.37;60.70;100617.41;6200719;28;20506;-62
2021/06/21 12:20:42;;;;;;;2.20;1.90;;;;;;;21.27;61.49;100614.44;6197024;28;20232;-63
2021/06/21 12:24:18;;;;;;;1.70;1.60;;;;;;;21.09;62.31;100608.34;6198659;28;20982;-61
2021/06/21 12:27:39;;;;;;;2.78;2.65;;;;;;;21.20;62.09;100618.34;6213565;28;20299;-60
2021/06/21 12:31:01;;;;;;;3.10;2.72;;;;;;;21.10;62.58;100611.88;6236259;28;20240;-60
2021/06/21 12:34:47;;;;;;;1.77;1.67;;;;;;;21.49;61.37;100605.28;6211868;28;20229;-62
2021/06/21 12:38:14;;;;;;;2.45;2.25;;;;;;;21.14;62.05;100603.66;6209607;28;20241;-62
2021/06/21 12:41:37;;;;;;;2.05;1.95;;;;;;;20.88;63.08;100602.50;6209023;28;20237;-60
2021/06/21 12:45:08;;;;;;;2.85;2.65;;;;;;;21.60;61.84;100605.50;6206207;28;20257;-63
2021/06/21 12:48:30;;;;;;;2.17;2.08;;;;;;;21.76;61.08;100613.41;6223555;28;20239;-64
2021/06/21 12:51:53;;;;;;;2.58;2.30;;;;;;;21.28;62.36;100612.63;6223648;28;20320;-64
2021/06/21 12:55:16;;;;;;;1.70;1.60;;;;;;;20.95;63.91;100608.28;6205010;28;20244;-61
2021/06/21 12:58:37;;;;;;;2.40;1.90;;;;;;;21.01;63.39;100611.47;6217269;28;20232;-61
2021/06/21 13:01:59;;;;;;;2.85;1.92;;;;;;;21.11;62.52;100619.75;6209662;28;20233;-61
2021/06/21 13:05:20;;;;;;;1.40;1.30;;;;;;;21.10;62.66;100625.13;6196414;28;20241;-62
2021/06/21 13:08:42;;;;;;;1.50;1.40;;;;;;;21.13;62.20;100624.94;6202383;28;20248;-59
2021/06/21 13:12:04;;;;;;;2.17;1.50;;;;;;;21.25;62.08;100621.59;6232153;28;20220;-55
2021/06/21 13:15:25;;;;;;;3.75;1.45;;;;;;;21.11;62.02;100626.81;6224920;28;20228;-59
2021/06/21 13:18:48;;;;;;;1.50;1.40;;;;;;;21.30;62.02;100622.19;6232739;28;20319;-61
2021/06/21 13:22:12;;;;;;;1.33;1.23;;;;;;;20.99;62.65;100628.34;6220500;28;20228;-61
2021/06/21 13:25:45;;;;;;;1.17;1.08;;;;;;;21.07;62.84;100631.41;6236495;28;20220;-60
2021/06/21 13:29:23;;;;;;;0.93;0.93;;;;;;;21.00;62.74;100630.91;6236245;28;20232;-61
2021/06/21 13:32:44;;;;;;;3.92;1.45;;;;;;;21.21;62.42;100641.25;6231916;28;20239;-60
2021/06/21 13:36:05;;;;;;;1.40;1.30;;;;;;;21.51;61.32;100630.72;6241963;28;20524;-60
2021/06/21 13:39:26;;;;;;;1.02;1.00;;;;;;;21.36;61.58;100642.16;6228949;28;20319;-61
2021/06/21 13:42:52;;;;;;;1.73;1.17;;;;;;;21.25;61.96;100648.09;6222977;28;20236;-61
2021/06/21 13:46:15;;;;;;;0.70;0.70;;;;;;;20.87;63.17;100645.75;6231772;28;20224;-60
2021/06/21 13:49:36;;;;;;;1.40;1.30;;;;;;;21.07;62.29;100646.47;6236374;28;20515;-60
2021/06/21 13:52:57;;;;;;;1.35;1.25;;;;;;;21.09;62.76;100652.53;6226119;28;20285;-60
2021/06/21 13:56:28;;;;;;;1.23;1.20;;;;;;;20.80;63.95;100650.56;6229994;28;20236;-60
2021/06/21 13:59:51;;;;;;;1.35;1.25;;;;;;;21.12;63.18;100655.84;6229605;28;20233;-60
2021/06/21 14:03:26;;;;;;;1.23;1.10;;;;;;;21.36;61.83;100650.97;6230510;28;20251;-52
2021/06/21 14:06:48;;;;;;;1.52;1.42;;;;;;;21.15;62.25;100652.16;6229390;28;20323;-52
2021/06/21 14:10:11;;;;;;;0.93;0.80;;;;;;;20.97;62.79;100662.00;6226061;28;20233;-52
2021/06/21 14:13:35;;;;;;;1.20;1.17;;;;;;;20.22;65.30;100665.03;6223401;28;20240;-55
2021/06/21 14:16:57;;;;;;;1.27;1.17;;;;;;;20.43;64.79;100662.19;6226226;28;20236;-56
2021/06/21 14:20:18;;;;;;;1.60;1.50;;;;;;;20.53;64.87;100667.84;6223741;28;20661;-54
2021/06/21 14:23:42;;;;;;;1.98;1.40;;;;;;;20.15;65.65;100671.56;6235805;28;20224;-51
2021/06/21 14:27:04;;;;;;;1.33;1.30;;;;;;;20.03;65.68;100670.41;6245586;28;20271;-54
2021/06/21 14:30:25;;;;;;;1.50;1.40;;;;;;;20.11;65.39;100677.97;6232340;28;20332;-54
2021/06/21 14:33:49;;;;;;;2.30;1.30;;;;;;;20.06;65.19;100672.91;6233718;28;20241;-51
2021/06/21 14:37:10;;;;;;;2.00;1.00;;;;;;;20.13;64.87;100673.44;6237870;28;20256;-55
2021/06/21 14:40:31;;;;;;;1.40;1.30;;;;;;;20.16;65.31;100675.94;6240409;28;20227;-50
2021/06/21 14:43:52;;;;;;;1.63;1.52;;;;;;;20.13;65.74;100681.38;6248705;28;20484;-52
2021/06/21 14:47:13;;;;;;;1.23;1.23;;;;;;;19.89;66.22;100687.88;6220380;28;20228;-52
2021/06/21 14:50:35;;;;;;;1.33;1.27;;;;;;;20.16;65.78;100697.09;6233427;28;20673;-55
2021/06/21 14:53:55;;;;;;;2.67;1.63;;;;;;;19.92;66.43;100699.16;6214701;28;20241;-54
2021/06/21 14:57:17;;;;;;;1.73;1.63;;;;;;;19.79;66.18;100698.94;6205481;28;20792;-53
2021/06/21 15:00:38;;;;;;;1.63;1.52;;;;;;;19.60;67.30;100695.44;6220525;28;20229;-55
2021/06/21 15:03:59;;;;;;;1.35;1.30;;;;;;;19.63;67.39;100693.50;6209802;28;20233;-50
2021/06/21 15:07:22;;;;;;;1.95;1.85;;;;;;;19.86;66.77;100689.75;6220454;28;20237;-55
2021/06/21 15:10:44;;;;;;;2.17;2.08;;;;;;;19.86;67.01;100700.31;6221219;28;20618;-54
2021/06/21 15:14:10;;;;;;;1.67;1.58;;;;;;;20.02;66.41;100691.63;6218693;28;20229;-53
2021/06/21 15:17:31;;;;;;;2.33;2.15;;;;;;;20.19;66.38;100699.56;6221642;28;20261;-54
2021/06/21 15:20:52;;;;;;;2.28;2.17;;;;;;;19.85;66.43;100700.41;6228661;28;20602;-54
2021/06/21 15:24:14;;;;;;;4.47;2.25;;;;;;;19.67;67.54;100707.41;6214534;28;20320;-54
2021/06/21 15:27:35;;;;;;;1.70;1.60;;;;;;;19.81;66.95;100710.28;6238282;28;20323;-55
2021/06/21 15:30:56;;;;;;;1.80;1.70;;;;;;;19.89;66.85;100706.38;6240427;28;20220;-56
2021/06/21 15:34:17;;;;;;;1.92;1.83;;;;;;;20.37;66.40;100702.19;6232349;28;20231;-59
2021/06/21 15:37:38;;;;;;;2.88;2.67;;;;;;;20.95;63.79;100715.00;6245746;28;20231;-58
2021/06/21 15:41:01;;;;;;;1.63;1.52;;;;;;;20.77;64.11;100723.97;6257804;28;20260;-59
2021/06/21 15:44:21;;;;;;;1.05;1.05;;;;;;;20.48;64.72;100734.22;6245038;28;20255;-60
2021/06/21 15:47:42;;;;;;;1.48;1.38;;;;;;;20.59;64.05;100737.22;6235780;28;20884;-59
2021/06/21 15:51:06;;;;;;;1.17;1.15;;;;;;;20.58;64.26;100734.59;6245743;28;20225;-58